sensor_id;sensor_type;location;lat;lon;timestamp;pressure;altitude;pressure_sealevel;temperature;humidity
54936;BME280;40838;50.676;7.838;2024-01-07T00:01:27;97982.72;;;6.34;100.00
54936;BME280;40838;50.676;7.838;2024-01-07T00:03:55;97981.50;;;6.13;100.00
54936;BME280;40838;50.676;7.838;2024-01-07T00:06:22;97983.75;;;6.45;100.00
54936;BME280;40838;50.676;7.838;2024-01-07T00:08:49;97991.66;;;6.22;100.00
54936;BME280;40838;50.676;7.838;2024-01-07T00:11:16;97993.13;;;6.53;100.00
54936;BME280;40838;50.676;7.838;2024-01-07T00:13:43;97995.41;;;6.49;100.00
54936;BME280;40838;50.676;7.838;2024-01-07T00:16:10;97991.41;;;6.58;100.00
54936;BME280;40838;50.676;7.838;2024-01-07T00:18:36;97998.28;;;7.17;100.00
54936;BME280;40838;50.676;7.838;2024-01-07T00:21:05;98001.38;;;7.14;100.00
54936;BME280;40838;50.676;7.838;2024-01-07T00:23:32;97998.03;;;7.18;100.00
54936;BME280;40838;50.676;7.838;2024-01-07T00:25:59;98009.56;;;6.72;100.00
54936;BME280;40838;50.676;7.838;2024-01-07T00:28:27;98011.84;;;6.56;100.00
54936;BME280;40838;50.676;7.838;2024-01-07T00:30:54;98014.66;;;6.78;100.00
54936;BME280;40838;50.676;7.838;2024-01-07T00:33:21;98023.63;;;6.54;100.00
54936;BME280;40838;50.676;7.838;2024-01-07T00:35:48;98014.63;;;6.90;100.00
54936;BME280;40838;50.676;7.838;2024-01-07T00:38:16;98015.31;;;6.85;100.00
54936;BME280;40838;50.676;7.838;2024-01-07T00:40:43;98017.13;;;6.97;100.00
54936;BME280;40838;50.676;7.838;2024-01-07T00:43:13;98024.63;;;6.76;100.00
54936;BME280;40838;50.676;7.838;2024-01-07T00:45:43;98024.41;;;7.06;100.00
54936;BME280;40838;50.676;7.838;2024-01-07T00:48:10;98033.44;;;6.70;100.00
54936;BME280;40838;50.676;7.838;2024-01-07T00:50:37;98030.94;;;6.75;100.00
54936;BME280;40838;50.676;7.838;2024-01-07T00:53:04;98028.16;;;6.82;100.00
54936;BME280;40838;50.676;7.838;2024-01-07T00:55:32;98038.34;;;6.78;100.00
54936;BME280;40838;50.676;7.838;2024-01-07T00:58:00;98034.00;;;7.13;100.00
54936;BME280;40838;50.676;7.838;2024-01-07T01:00:28;98029.91;;;7.05;100.00
54936;BME280;40838;50.676;7.838;2024-01-07T01:02:55;98031.34;;;6.84;100.00
54936;BME280;40838;50.676;7.838;2024-01-07T01:05:22;98035.13;;;6.76;100.00
54936;BME280;40838;50.676;7.838;2024-01-07T01:07:49;98034.16;;;6.18;100.00
54936;BME280;40838;50.676;7.838;2024-01-07T01:10:17;98039.66;;;6.52;100.00
54936;BME280;40838;50.676;7.838;2024-01-07T01:12:45;98034.97;;;6.31;100.00
54936;BME280;40838;50.676;7.838;2024-01-07T01:15:12;98040.31;;;5.77;100.00
54936;BME280;40838;50.676;7.838;2024-01-07T01:17:42;98038.91;;;5.63;100.00
54936;BME280;40838;50.676;7.838;2024-01-07T01:20:09;98041.38;;;6.00;100.00
54936;BME280;40838;50.676;7.838;2024-01-07T01:22:36;98049.91;;;5.95;100.00
54936;BME280;40838;50.676;7.838;2024-01-07T01:25:04;98046.28;;;5.42;100.00
54936;BME280;40838;50.676;7.838;2024-01-07T01:27:32;98054.59;;;5.39;100.00
54936;BME280;40838;50.676;7.838;2024-01-07T01:30:00;98051.13;;;5.69;100.00
54936;BME280;40838;50.676;7.838;2024-01-07T01:32:33;98060.34;;;5.48;100.00
54936;BME280;40838;50.676;7.838;2024-01-07T01:35:00;98065.09;;;5.69;100.00
54936;BME280;40838;50.676;7.838;2024-01-07T01:37:27;98061.91;;;5.79;100.00
54936;BME280;40838;50.676;7.838;2024-01-07T01:39:54;98063.94;;;5.65;100.00
54936;BME280;40838;50.676;7.838;2024-01-07T01:42:21;98061.28;;;5.54;100.00
54936;BME280;40838;50.676;7.838;2024-01-07T01:44:48;98068.38;;;5.65;100.00
54936;BME280;40838;50.676;7.838;2024-01-07T01:47:17;98069.00;;;5.48;100.00
54936;BME280;40838;50.676;7.838;2024-01-07T01:49:44;98076.47;;;5.63;100.00
54936;BME280;40838;50.676;7.838;2024-01-07T01:52:12;98076.38;;;5.58;100.00
54936;BME280;40838;50.676;7.838;2024-01-07T01:54:40;98075.53;;;5.46;100.00
54936;BME280;40838;50.676;7.838;2024-01-07T01:57:08;98076.59;;;5.68;100.00
54936;BME280;40838;50.676;7.838;2024-01-07T01:59:36;98080.47;;;5.66;100.00
54936;BME280;40838;50.676;7.838;2024-01-07T02:02:04;98075.50;;;5.76;100.00
54936;BME280;40838;50.676;7.838;2024-01-07T02:04:32;98080.16;;;5.74;100.00
54936;BME280;40838;50.676;7.838;2024-01-07T02:06:59;98083.78;;;5.61;100.00
54936;BME280;40838;50.676;7.838;2024-01-07T02:09:26;98077.44;;;5.39;100.00
54936;BME280;40838;50.676;7.838;2024-01-07T02:12:02;98080.53;;;6.01;100.00
54936;BME280;40838;50.676;7.838;2024-01-07T02:14:29;98083.28;;;5.94;100.00
54936;BME280;40838;50.676;7.838;2024-01-07T02:16:56;98080.63;;;5.83;100.00
54936;BME280;40838;50.676;7.838;2024-01-07T02:19:23;98086.31;;;5.68;100.00
54936;BME280;40838;50.676;7.838;2024-01-07T02:21:52;98081.69;;;5.52;100.00
54936;BME280;40838;50.676;7.838;2024-01-07T02:24:21;98083.16;;;5.89;100.00
54936;BME280;40838;50.676;7.838;2024-01-07T02:26:48;98088.81;;;5.33;100.00
54936;BME280;40838;50.676;7.838;2024-01-07T02:29:15;98093.13;;;5.27;100.00
54936;BME280;40838;50.676;7.838;2024-01-07T02:31:42;98100.41;;;4.76;100.00
54936;BME280;40838;50.676;7.838;2024-01-07T02:34:09;98082.72;;;5.20;100.00
54936;BME280;40838;50.676;7.838;2024-01-07T02:36:36;98092.88;;;4.98;100.00
54936;BME280;40838;50.676;7.838;2024-01-07T02:39:03;98095.72;;;5.15;100.00
54936;BME280;40838;50.676;7.838;2024-01-07T02:41:31;98094.38;;;5.24;100.00
54936;BME280;40838;50.676;7.838;2024-01-07T02:43:58;98096.84;;;4.52;100.00
54936;BME280;40838;50.676;7.838;2024-01-07T02:46:25;98095.88;;;4.65;100.00
54936;BME280;40838;50.676;7.838;2024-01-07T02:48:51;98097.00;;;4.76;100.00
54936;BME280;40838;50.676;7.838;2024-01-07T02:51:18;98099.81;;;5.11;100.00
54936;BME280;40838;50.676;7.838;2024-01-07T02:53:45;98096.88;;;5.01;100.00
54936;BME280;40838;50.676;7.838;2024-01-07T02:56:12;98100.25;;;4.90;100.00
54936;BME280;40838;50.676;7.838;2024-01-07T02:58:40;98090.41;;;5.34;100.00
54936;BME280;40838;50.676;7.838;2024-01-07T03:01:08;98100.44;;;5.55;100.00
54936;BME280;40838;50.676;7.838;2024-01-07T03:03:36;98094.72;;;5.28;100.00
54936;BME280;40838;50.676;7.838;2024-01-07T03:06:03;98095.13;;;5.32;100.00
54936;BME280;40838;50.676;7.838;2024-01-07T03:08:30;98099.72;;;5.48;100.00
54936;BME280;40838;50.676;7.838;2024-01-07T03:10:57;98098.09;;;5.77;100.00
54936;BME280;40838;50.676;7.838;2024-01-07T03:13:23;98095.56;;;5.29;100.00
54936;BME280;40838;50.676;7.838;2024-01-07T03:15:52;98104.72;;;5.19;100.00
54936;BME280;40838;50.676;7.838;2024-01-07T03:18:18;98108.03;;;4.16;100.00
54936;BME280;40838;50.676;7.838;2024-01-07T03:20:45;98102.88;;;4.53;100.00
54936;BME280;40838;50.676;7.838;2024-01-07T03:23:12;98108.56;;;4.68;100.00
54936;BME280;40838;50.676;7.838;2024-01-07T03:25:39;98109.16;;;4.70;100.00
54936;BME280;40838;50.676;7.838;2024-01-07T03:28:06;98112.66;;;4.82;100.00
54936;BME280;40838;50.676;7.838;2024-01-07T03:30:33;98115.41;;;4.88;100.00
54936;BME280;40838;50.676;7.838;2024-01-07T03:33:02;98106.28;;;5.09;100.00
54936;BME280;40838;50.676;7.838;2024-01-07T03:35:29;98107.00;;;5.16;100.00
54936;BME280;40838;50.676;7.838;2024-01-07T03:37:56;98117.69;;;5.33;100.00
54936;BME280;40838;50.676;7.838;2024-01-07T03:40:23;98103.47;;;5.40;100.00
54936;BME280;40838;50.676;7.838;2024-01-07T03:42:50;98113.50;;;5.13;100.00
54936;BME280;40838;50.676;7.838;2024-01-07T03:45:19;98118.00;;;4.51;100.00
54936;BME280;40838;50.676;7.838;2024-01-07T03:47:45;98112.13;;;4.55;100.00
54936;BME280;40838;50.676;7.838;2024-01-07T03:50:14;98115.03;;;4.22;100.00
54936;BME280;40838;50.676;7.838;2024-01-07T03:52:41;98119.09;;;4.18;100.00
54936;BME280;40838;50.676;7.838;2024-01-07T03:55:08;98118.44;;;4.66;100.00
54936;BME280;40838;50.676;7.838;2024-01-07T03:57:34;98120.94;;;4.61;100.00
54936;BME280;40838;50.676;7.838;2024-01-07T04:00:01;98124.53;;;4.85;100.00
54936;BME280;40838;50.676;7.838;2024-01-07T04:02:30;98124.81;;;5.14;100.00
54936;BME280;40838;50.676;7.838;2024-01-07T04:04:56;98126.19;;;4.79;100.00
54936;BME280;40838;50.676;7.838;2024-01-07T04:07:25;98124.38;;;4.80;100.00
54936;BME280;40838;50.676;7.838;2024-01-07T04:09:51;98124.81;;;4.95;100.00
54936;BME280;40838;50.676;7.838;2024-01-07T04:12:18;98128.03;;;4.79;100.00
54936;BME280;40838;50.676;7.838;2024-01-07T04:14:45;98132.88;;;4.75;100.00
54936;BME280;40838;50.676;7.838;2024-01-07T04:17:12;98127.13;;;4.67;100.00
54936;BME280;40838;50.676;7.838;2024-01-07T04:19:38;98134.66;;;5.00;100.00
54936;BME280;40838;50.676;7.838;2024-01-07T04:22:05;98136.50;;;4.56;100.00
54936;BME280;40838;50.676;7.838;2024-01-07T04:24:33;98142.72;;;4.62;100.00
54936;BME280;40838;50.676;7.838;2024-01-07T04:27:00;98142.81;;;4.48;100.00
54936;BME280;40838;50.676;7.838;2024-01-07T04:29:27;98139.59;;;4.90;100.00
54936;BME280;40838;50.676;7.838;2024-01-07T04:31:54;98147.16;;;4.61;100.00
54936;BME280;40838;50.676;7.838;2024-01-07T04:34:21;98147.28;;;4.48;100.00
54936;BME280;40838;50.676;7.838;2024-01-07T04:36:48;98144.75;;;4.59;100.00
54936;BME280;40838;50.676;7.838;2024-01-07T04:39:15;98148.31;;;4.65;100.00
54936;BME280;40838;50.676;7.838;2024-01-07T04:41:43;98148.03;;;4.73;100.00
54936;BME280;40838;50.676;7.838;2024-01-07T04:44:10;98147.72;;;4.63;100.00
54936;BME280;40838;50.676;7.838;2024-01-07T04:46:38;98153.22;;;4.36;100.00
54936;BME280;40838;50.676;7.838;2024-01-07T04:49:05;98159.06;;;4.39;100.00
54936;BME280;40838;50.676;7.838;2024-01-07T04:51:32;98165.44;;;4.68;100.00
54936;BME280;40838;50.676;7.838;2024-01-07T04:53:59;98166.50;;;4.60;100.00
54936;BME280;40838;50.676;7.838;2024-01-07T04:56:26;98165.69;;;5.03;100.00
54936;BME280;40838;50.676;7.838;2024-01-07T04:58:54;98158.28;;;5.48;100.00
54936;BME280;40838;50.676;7.838;2024-01-07T05:01:23;98165.78;;;5.45;100.00
54936;BME280;40838;50.676;7.838;2024-01-07T05:03:51;98167.28;;;5.41;100.00
54936;BME280;40838;50.676;7.838;2024-01-07T05:06:17;98169.81;;;5.47;100.00
54936;BME280;40838;50.676;7.838;2024-01-07T05:08:44;98171.25;;;4.70;100.00
54936;BME280;40838;50.676;7.838;2024-01-07T05:11:11;98177.34;;;4.45;100.00
54936;BME280;40838;50.676;7.838;2024-01-07T05:13:38;98174.59;;;4.58;100.00
54936;BME280;40838;50.676;7.838;2024-01-07T05:16:06;98176.38;;;4.65;100.00
54936;BME280;40838;50.676;7.838;2024-01-07T05:18:35;98176.25;;;4.96;100.00
54936;BME280;40838;50.676;7.838;2024-01-07T05:21:05;98177.09;;;4.90;100.00
54936;BME280;40838;50.676;7.838;2024-01-07T05:23:32;98181.53;;;4.46;100.00
54936;BME280;40838;50.676;7.838;2024-01-07T05:26:00;98187.16;;;4.25;100.00
54936;BME280;40838;50.676;7.838;2024-01-07T05:28:27;98188.78;;;4.51;100.00
54936;BME280;40838;50.676;7.838;2024-01-07T05:30:54;98194.66;;;4.46;100.00
54936;BME280;40838;50.676;7.838;2024-01-07T05:33:22;98197.88;;;4.48;100.00
54936;BME280;40838;50.676;7.838;2024-01-07T05:35:49;98197.69;;;4.43;100.00
54936;BME280;40838;50.676;7.838;2024-01-07T05:38:16;98195.84;;;4.50;100.00
54936;BME280;40838;50.676;7.838;2024-01-07T05:40:44;98201.81;;;4.57;100.00
54936;BME280;40838;50.676;7.838;2024-01-07T05:43:11;98199.34;;;4.12;100.00
54936;BME280;40838;50.676;7.838;2024-01-07T05:45:37;98199.22;;;4.01;100.00
54936;BME280;40838;50.676;7.838;2024-01-07T05:48:05;98199.50;;;4.49;100.00
54936;BME280;40838;50.676;7.838;2024-01-07T05:50:34;98209.28;;;4.35;100.00
54936;BME280;40838;50.676;7.838;2024-01-07T05:53:01;98212.09;;;4.59;100.00
54936;BME280;40838;50.676;7.838;2024-01-07T05:55:27;98209.78;;;4.94;100.00
54936;BME280;40838;50.676;7.838;2024-01-07T05:57:54;98214.75;;;4.77;100.00
54936;BME280;40838;50.676;7.838;2024-01-07T06:00:21;98218.56;;;4.81;100.00
54936;BME280;40838;50.676;7.838;2024-01-07T06:02:48;98227.28;;;4.75;100.00
54936;BME280;40838;50.676;7.838;2024-01-07T06:05:15;98225.28;;;4.96;100.00
54936;BME280;40838;50.676;7.838;2024-01-07T06:07:44;98230.13;;;4.74;100.00
54936;BME280;40838;50.676;7.838;2024-01-07T06:10:10;98221.38;;;4.62;100.00
54936;BME280;40838;50.676;7.838;2024-01-07T06:12:37;98233.53;;;4.99;100.00
54936;BME280;40838;50.676;7.838;2024-01-07T06:15:05;98237.59;;;4.95;100.00
54936;BME280;40838;50.676;7.838;2024-01-07T06:17:32;98235.94;;;5.01;100.00
54936;BME280;40838;50.676;7.838;2024-01-07T06:19:58;98241.69;;;4.66;100.00
54936;BME280;40838;50.676;7.838;2024-01-07T06:22:25;98242.00;;;4.51;100.00
54936;BME280;40838;50.676;7.838;2024-01-07T06:24:53;98248.69;;;4.72;100.00
54936;BME280;40838;50.676;7.838;2024-01-07T06:27:20;98251.47;;;5.02;100.00
54936;BME280;40838;50.676;7.838;2024-01-07T06:29:47;98254.03;;;5.27;100.00
54936;BME280;40838;50.676;7.838;2024-01-07T06:32:14;98262.06;;;5.14;100.00
54936;BME280;40838;50.676;7.838;2024-01-07T06:34:40;98261.91;;;5.27;100.00
54936;BME280;40838;50.676;7.838;2024-01-07T06:37:07;98272.06;;;5.61;100.00
54936;BME280;40838;50.676;7.838;2024-01-07T06:39:35;98277.72;;;5.21;100.00
54936;BME280;40838;50.676;7.838;2024-01-07T06:42:05;98282.66;;;5.11;100.00
54936;BME280;40838;50.676;7.838;2024-01-07T06:44:32;98288.38;;;5.26;100.00
54936;BME280;40838;50.676;7.838;2024-01-07T06:46:58;98288.31;;;3.94;100.00
54936;BME280;40838;50.676;7.838;2024-01-07T06:49:25;98285.94;;;4.56;100.00
54936;BME280;40838;50.676;7.838;2024-01-07T06:51:52;98282.72;;;5.22;100.00
54936;BME280;40838;50.676;7.838;2024-01-07T06:54:19;98286.13;;;5.30;100.00
54936;BME280;40838;50.676;7.838;2024-01-07T06:56:46;98298.81;;;5.51;100.00
54936;BME280;40838;50.676;7.838;2024-01-07T06:59:14;98297.28;;;5.80;100.00
54936;BME280;40838;50.676;7.838;2024-01-07T07:01:41;98302.53;;;5.43;100.00
54936;BME280;40838;50.676;7.838;2024-01-07T07:04:08;98309.47;;;5.38;100.00
54936;BME280;40838;50.676;7.838;2024-01-07T07:06:34;98308.19;;;5.95;100.00
54936;BME280;40838;50.676;7.838;2024-01-07T07:09:01;98312.53;;;5.90;100.00
54936;BME280;40838;50.676;7.838;2024-01-07T07:11:28;98311.59;;;5.84;100.00
54936;BME280;40838;50.676;7.838;2024-01-07T07:13:55;98308.53;;;5.87;100.00
54936;BME280;40838;50.676;7.838;2024-01-07T07:16:24;98321.91;;;5.98;100.00
54936;BME280;40838;50.676;7.838;2024-01-07T07:18:51;98328.16;;;6.15;100.00
54936;BME280;40838;50.676;7.838;2024-01-07T07:21:18;98329.44;;;5.94;100.00
54936;BME280;40838;50.676;7.838;2024-01-07T07:23:46;98333.66;;;5.95;100.00
54936;BME280;40838;50.676;7.838;2024-01-07T07:26:13;98329.56;;;6.17;100.00
54936;BME280;40838;50.676;7.838;2024-01-07T07:28:42;98347.03;;;5.93;100.00
54936;BME280;40838;50.676;7.838;2024-01-07T07:31:10;98344.72;;;6.34;100.00
54936;BME280;40838;50.676;7.838;2024-01-07T07:33:39;98338.34;;;6.11;100.00
54936;BME280;40838;50.676;7.838;2024-01-07T07:36:07;98339.28;;;6.17;100.00
54936;BME280;40838;50.676;7.838;2024-01-07T07:38:34;98341.66;;;6.18;100.00
54936;BME280;40838;50.676;7.838;2024-01-07T07:41:01;98344.19;;;6.13;100.00
54936;BME280;40838;50.676;7.838;2024-01-07T07:43:28;98348.16;;;6.34;100.00
54936;BME280;40838;50.676;7.838;2024-01-07T07:45:55;98358.66;;;6.53;100.00
54936;BME280;40838;50.676;7.838;2024-01-07T07:48:22;98361.13;;;6.48;100.00
54936;BME280;40838;50.676;7.838;2024-01-07T07:50:50;98362.41;;;6.27;100.00
54936;BME280;40838;50.676;7.838;2024-01-07T07:53:17;98360.00;;;6.07;100.00
54936;BME280;40838;50.676;7.838;2024-01-07T07:55:45;98368.13;;;6.54;100.00
54936;BME280;40838;50.676;7.838;2024-01-07T07:58:12;98374.00;;;5.45;100.00
54936;BME280;40838;50.676;7.838;2024-01-07T08:00:41;98372.50;;;6.11;100.00
54936;BME280;40838;50.676;7.838;2024-01-07T08:03:08;98367.53;;;6.03;100.00
54936;BME280;40838;50.676;7.838;2024-01-07T08:05:35;98380.25;;;6.36;100.00
54936;BME280;40838;50.676;7.838;2024-01-07T08:08:04;98387.47;;;6.11;100.00
54936;BME280;40838;50.676;7.838;2024-01-07T08:10:31;98388.13;;;6.06;100.00
54936;BME280;40838;50.676;7.838;2024-01-07T08:12:59;98385.69;;;5.86;100.00
54936;BME280;40838;50.676;7.838;2024-01-07T08:15:26;98387.16;;;6.01;100.00
54936;BME280;40838;50.676;7.838;2024-01-07T08:17:53;98387.88;;;6.26;100.00
54936;BME280;40838;50.676;7.838;2024-01-07T08:20:19;98395.34;;;6.29;100.00
54936;BME280;40838;50.676;7.838;2024-01-07T08:22:46;98400.91;;;6.39;100.00
54936;BME280;40838;50.676;7.838;2024-01-07T08:25:15;98398.53;;;6.13;100.00
54936;BME280;40838;50.676;7.838;2024-01-07T08:27:41;98410.28;;;5.73;100.00
54936;BME280;40838;50.676;7.838;2024-01-07T08:30:10;98410.53;;;6.09;100.00
54936;BME280;40838;50.676;7.838;2024-01-07T08:32:37;98408.44;;;5.56;100.00
54936;BME280;40838;50.676;7.838;2024-01-07T08:35:04;98410.81;;;5.82;100.00
54936;BME280;40838;50.676;7.838;2024-01-07T08:37:32;98419.13;;;5.61;100.00
54936;BME280;40838;50.676;7.838;2024-01-07T08:39:59;98417.53;;;5.03;100.00
54936;BME280;40838;50.676;7.838;2024-01-07T08:42:28;98418.78;;;6.31;100.00
54936;BME280;40838;50.676;7.838;2024-01-07T08:44:56;98424.25;;;6.29;100.00
54936;BME280;40838;50.676;7.838;2024-01-07T08:47:24;98428.16;;;6.75;100.00
54936;BME280;40838;50.676;7.838;2024-01-07T08:49:50;98431.41;;;5.60;100.00
54936;BME280;40838;50.676;7.838;2024-01-07T08:52:19;98444.66;;;5.22;100.00
54936;BME280;40838;50.676;7.838;2024-01-07T08:54:46;98453.78;;;4.81;100.00
54936;BME280;40838;50.676;7.838;2024-01-07T08:57:12;98449.53;;;4.87;100.00
54936;BME280;40838;50.676;7.838;2024-01-07T08:59:41;98454.06;;;5.80;100.00
54936;BME280;40838;50.676;7.838;2024-01-07T09:02:07;98446.00;;;4.68;100.00
54936;BME280;40838;50.676;7.838;2024-01-07T09:04:34;98451.59;;;5.10;100.00
54936;BME280;40838;50.676;7.838;2024-01-07T09:07:01;98451.31;;;5.49;100.00
54936;BME280;40838;50.676;7.838;2024-01-07T09:09:28;98463.31;;;4.17;100.00
54936;BME280;40838;50.676;7.838;2024-01-07T09:11:55;98462.50;;;5.38;100.00
54936;BME280;40838;50.676;7.838;2024-01-07T09:14:24;98469.78;;;5.04;100.00
54936;BME280;40838;50.676;7.838;2024-01-07T09:16:52;98470.44;;;5.00;100.00
54936;BME280;40838;50.676;7.838;2024-01-07T09:19:19;98473.38;;;5.10;100.00
54936;BME280;40838;50.676;7.838;2024-01-07T09:21:46;98468.84;;;4.92;100.00
54936;BME280;40838;50.676;7.838;2024-01-07T09:24:14;98474.34;;;4.84;100.00
54936;BME280;40838;50.676;7.838;2024-01-07T09:26:41;98481.56;;;4.95;100.00
54936;BME280;40838;50.676;7.838;2024-01-07T09:29:08;98479.88;;;5.64;100.00
54936;BME280;40838;50.676;7.838;2024-01-07T09:31:36;98475.22;;;5.10;100.00
54936;BME280;40838;50.676;7.838;2024-01-07T09:34:04;98498.94;;;5.53;100.00
54936;BME280;40838;50.676;7.838;2024-01-07T09:36:32;98499.38;;;5.18;100.00
54936;BME280;40838;50.676;7.838;2024-01-07T09:38:58;98496.84;;;5.37;100.00
54936;BME280;40838;50.676;7.838;2024-01-07T09:41:26;98492.09;;;4.89;100.00
54936;BME280;40838;50.676;7.838;2024-01-07T09:43:53;98503.03;;;5.17;100.00
54936;BME280;40838;50.676;7.838;2024-01-07T09:46:21;98497.34;;;4.89;100.00
54936;BME280;40838;50.676;7.838;2024-01-07T09:48:48;98494.34;;;5.99;100.00
54936;BME280;40838;50.676;7.838;2024-01-07T09:51:21;98505.78;;;5.29;100.00
54936;BME280;40838;50.676;7.838;2024-01-07T09:53:48;98510.63;;;6.26;100.00
54936;BME280;40838;50.676;7.838;2024-01-07T09:56:24;98497.81;;;5.11;100.00
54936;BME280;40838;50.676;7.838;2024-01-07T09:58:52;98506.88;;;3.78;100.00
54936;BME280;40838;50.676;7.838;2024-01-07T10:01:19;98510.13;;;5.42;100.00
54936;BME280;40838;50.676;7.838;2024-01-07T10:03:45;98501.69;;;5.90;100.00
54936;BME280;40838;50.676;7.838;2024-01-07T10:06:13;98519.34;;;5.58;100.00
54936;BME280;40838;50.676;7.838;2024-01-07T10:08:41;98512.13;;;5.71;100.00
54936;BME280;40838;50.676;7.838;2024-01-07T10:11:08;98516.72;;;5.26;100.00
54936;BME280;40838;50.676;7.838;2024-01-07T10:13:35;98510.16;;;5.03;100.00
54936;BME280;40838;50.676;7.838;2024-01-07T10:16:03;98520.56;;;5.23;100.00
54936;BME280;40838;50.676;7.838;2024-01-07T10:18:30;98521.88;;;5.01;100.00
54936;BME280;40838;50.676;7.838;2024-01-07T10:21:02;98526.09;;;5.09;100.00
54936;BME280;40838;50.676;7.838;2024-01-07T10:23:30;98525.63;;;4.02;100.00
54936;BME280;40838;50.676;7.838;2024-01-07T10:25:59;98526.50;;;4.61;100.00
54936;BME280;40838;50.676;7.838;2024-01-07T10:28:27;98524.00;;;4.07;100.00
54936;BME280;40838;50.676;7.838;2024-01-07T10:30:54;98520.66;;;5.03;100.00
54936;BME280;40838;50.676;7.838;2024-01-07T10:33:21;98520.16;;;4.23;100.00
54936;BME280;40838;50.676;7.838;2024-01-07T10:35:52;98529.47;;;5.79;100.00
54936;BME280;40838;50.676;7.838;2024-01-07T10:38:19;98522.56;;;4.83;100.00
54936;BME280;40838;50.676;7.838;2024-01-07T10:40:47;98527.31;;;5.06;100.00
54936;BME280;40838;50.676;7.838;2024-01-07T10:43:19;98518.47;;;4.55;100.00
54936;BME280;40838;50.676;7.838;2024-01-07T10:45:54;98525.16;;;5.28;100.00
54936;BME280;40838;50.676;7.838;2024-01-07T10:48:23;98516.47;;;4.96;100.00
54936;BME280;40838;50.676;7.838;2024-01-07T10:50:55;98523.66;;;5.14;100.00
54936;BME280;40838;50.676;7.838;2024-01-07T10:53:25;98522.91;;;5.88;100.00
54936;BME280;40838;50.676;7.838;2024-01-07T10:55:59;98528.19;;;4.93;100.00
54936;BME280;40838;50.676;7.838;2024-01-07T10:58:29;98520.47;;;4.98;100.00
54936;BME280;40838;50.676;7.838;2024-01-07T11:00:57;98528.06;;;4.75;100.00
54936;BME280;40838;50.676;7.838;2024-01-07T11:03:30;98532.97;;;5.41;100.00
54936;BME280;40838;50.676;7.838;2024-01-07T11:06:01;98521.78;;;5.21;100.00
54936;BME280;40838;50.676;7.838;2024-01-07T11:08:34;98534.63;;;4.97;100.00
54936;BME280;40838;50.676;7.838;2024-01-07T11:11:06;98534.19;;;5.39;100.00
54936;BME280;40838;50.676;7.838;2024-01-07T11:13:36;98522.38;;;5.23;100.00
54936;BME280;40838;50.676;7.838;2024-01-07T11:16:04;98536.31;;;4.85;100.00
54936;BME280;40838;50.676;7.838;2024-01-07T11:18:38;98537.63;;;5.89;100.00
54936;BME280;40838;50.676;7.838;2024-01-07T11:21:05;98538.94;;;5.80;100.00
54936;BME280;40838;50.676;7.838;2024-01-07T11:23:34;98537.91;;;4.08;100.00
54936;BME280;40838;50.676;7.838;2024-01-07T11:26:03;98544.59;;;5.20;100.00
54936;BME280;40838;50.676;7.838;2024-01-07T11:28:47;98547.59;;;4.86;100.00
54936;BME280;40838;50.676;7.838;2024-01-07T11:31:16;98551.75;;;5.38;100.00
54936;BME280;40838;50.676;7.838;2024-01-07T11:33:43;98547.91;;;5.72;100.00
54936;BME280;40838;50.676;7.838;2024-01-07T11:36:11;98545.41;;;5.78;100.00
54936;BME280;40838;50.676;7.838;2024-01-07T11:38:41;98553.31;;;5.08;100.00
54936;BME280;40838;50.676;7.838;2024-01-07T11:41:09;98557.06;;;5.32;100.00
54936;BME280;40838;50.676;7.838;2024-01-07T11:43:37;98556.13;;;5.51;100.00
54936;BME280;40838;50.676;7.838;2024-01-07T11:46:06;98557.63;;;5.40;100.00
54936;BME280;40838;50.676;7.838;2024-01-07T11:48:33;98560.47;;;4.22;100.00
54936;BME280;40838;50.676;7.838;2024-01-07T11:50:59;98557.13;;;4.73;100.00
54936;BME280;40838;50.676;7.838;2024-01-07T11:53:27;98555.47;;;5.24;100.00
54936;BME280;40838;50.676;7.838;2024-01-07T11:55:54;98560.44;;;4.42;100.00
54936;BME280;40838;50.676;7.838;2024-01-07T11:58:21;98568.66;;;5.17;100.00
54936;BME280;40838;50.676;7.838;2024-01-07T12:00:48;98563.69;;;4.04;100.00
54936;BME280;40838;50.676;7.838;2024-01-07T12:03:17;98563.97;;;5.26;100.00
54936;BME280;40838;50.676;7.838;2024-01-07T12:05:44;98563.00;;;5.45;100.00
54936;BME280;40838;50.676;7.838;2024-01-07T12:08:14;98566.69;;;3.68;100.00
54936;BME280;40838;50.676;7.838;2024-01-07T12:10:43;98557.44;;;4.05;100.00
54936;BME280;40838;50.676;7.838;2024-01-07T12:13:11;98556.63;;;4.96;100.00
54936;BME280;40838;50.676;7.838;2024-01-07T12:15:39;98554.31;;;5.77;100.00
54936;BME280;40838;50.676;7.838;2024-01-07T12:18:06;98559.28;;;5.28;100.00
54936;BME280;40838;50.676;7.838;2024-01-07T12:20:34;98556.91;;;4.75;100.00
54936;BME280;40838;50.676;7.838;2024-01-07T12:23:07;98557.59;;;4.37;100.00
54936;BME280;40838;50.676;7.838;2024-01-07T12:25:35;98568.03;;;4.64;100.00
54936;BME280;40838;50.676;7.838;2024-01-07T12:28:02;98557.84;;;3.82;100.00
54936;BME280;40838;50.676;7.838;2024-01-07T12:30:29;98565.50;;;4.17;100.00
54936;BME280;40838;50.676;7.838;2024-01-07T12:32:57;98571.88;;;4.54;100.00
54936;BME280;40838;50.676;7.838;2024-01-07T12:35:25;98557.44;;;4.90;100.00
54936;BME280;40838;50.676;7.838;2024-01-07T12:37:54;98583.25;;;3.07;100.00
54936;BME280;40838;50.676;7.838;2024-01-07T12:40:21;98561.16;;;4.76;100.00
54936;BME280;40838;50.676;7.838;2024-01-07T12:42:50;98570.31;;;3.54;100.00
54936;BME280;40838;50.676;7.838;2024-01-07T12:45:17;98576.56;;;3.73;100.00
54936;BME280;40838;50.676;7.838;2024-01-07T12:47:44;98574.75;;;3.73;100.00
54936;BME280;40838;50.676;7.838;2024-01-07T12:50:12;98585.03;;;3.81;100.00
54936;BME280;40838;50.676;7.838;2024-01-07T12:52:42;98585.25;;;3.05;100.00
54936;BME280;40838;50.676;7.838;2024-01-07T12:55:10;98581.59;;;3.67;100.00
54936;BME280;40838;50.676;7.838;2024-01-07T12:57:37;98586.25;;;4.19;100.00
54936;BME280;40838;50.676;7.838;2024-01-07T13:00:07;98577.53;;;4.58;100.00
54936;BME280;40838;50.676;7.838;2024-01-07T13:02:34;98596.50;;;3.80;100.00